createdAt,value
2022-12-31T00:02:17.436Z,47.80
2022-12-31T00:07:24.414Z,55.80
2022-12-31T00:12:29.215Z,42.97
2022-12-31T00:17:34.397Z,52.43
2022-12-31T00:22:40.531Z,46.77
2022-12-31T00:27:44.411Z,54.93
2022-12-31T00:32:48.415Z,51.73
2022-12-31T00:37:53.917Z,54.57
2022-12-31T00:42:58.647Z,51.03
2022-12-31T00:48:05.370Z,51.97
2022-12-31T00:53:10.531Z,46.17
2022-12-31T00:58:14.523Z,47.33
2022-12-31T01:03:19.375Z,54.87
2022-12-31T01:08:25.730Z,48.83
2022-12-31T01:13:34.551Z,50.10
2022-12-31T01:18:39.586Z,64.63
2022-12-31T01:23:44.050Z,51.53
2022-12-31T01:28:49.286Z,50.97
2022-12-31T01:33:53.407Z,47.13
2022-12-31T01:39:00.825Z,48.37
2022-12-31T01:44:26.172Z,49.45
2022-12-31T01:49:58.670Z,54.57
2022-12-31T01:55:19.220Z,50.43
2022-12-31T02:00:26.547Z,44.67
2022-12-31T02:05:38.960Z,58.80
2022-12-31T02:10:43.163Z,51.13
2022-12-31T02:16:10.524Z,60.47
2022-12-31T02:21:36.443Z,48.80
2022-12-31T02:27:23.410Z,46.37
2022-12-31T02:33:11.667Z,55.05
2022-12-31T02:38:45.238Z,60.47
2022-12-31T02:43:52.519Z,56.53
2022-12-31T02:49:17.479Z,50.30
2022-12-31T02:54:32.994Z,51.37
2022-12-31T03:00:19.988Z,51.67
2022-12-31T03:05:27.867Z,50.87
2022-12-31T03:10:32.705Z,58.30
2022-12-31T03:15:36.502Z,71.43
2022-12-31T03:21:05.501Z,64.37
2022-12-31T03:26:12.801Z,55.83
2022-12-31T03:31:19.797Z,62.30
2022-12-31T03:36:23.897Z,57.67
2022-12-31T03:41:27.598Z,65.43
2022-12-31T03:46:32.692Z,64.43
2022-12-31T03:51:37.172Z,71.80
2022-12-31T03:56:42.103Z,55.33
2022-12-31T04:01:46.708Z,65.47
2022-12-31T04:06:51.166Z,57.13
2022-12-31T04:11:55.662Z,63.27
2022-12-31T04:17:02.511Z,65.70
2022-12-31T04:22:06.557Z,69.83
2022-12-31T04:27:12.495Z,55.43
2022-12-31T04:32:18.736Z,65.87
2022-12-31T04:37:26.318Z,61.13
2022-12-31T04:42:32.807Z,70.25
2022-12-31T04:47:39.007Z,62.07
2022-12-31T04:52:43.262Z,54.97
2022-12-31T04:57:47.084Z,55.23
2022-12-31T05:02:56.507Z,58.27
2022-12-31T05:08:03.544Z,61.43
2022-12-31T05:13:07.432Z,50.63
2022-12-31T05:18:16.150Z,57.90
2022-12-31T05:23:22.514Z,55.83
2022-12-31T05:28:27.671Z,55.73
2022-12-31T05:33:34.053Z,75.47
2022-12-31T05:38:39.388Z,65.90
2022-12-31T05:43:44.149Z,60.17
2022-12-31T05:48:49.348Z,55.70
2022-12-31T05:53:53.987Z,53.40
2022-12-31T05:58:59.435Z,57.43
2022-12-31T06:04:03.383Z,53.40
2022-12-31T06:09:12.824Z,63.53
2022-12-31T06:14:18.386Z,60.47
2022-12-31T06:19:23.335Z,50.40
2022-12-31T06:24:28.067Z,54.13
2022-12-31T06:29:34.755Z,54.03
2022-12-31T06:34:39.522Z,53.83
2022-12-31T06:39:45.237Z,37.87
2022-12-31T06:44:50.354Z,49.33
2022-12-31T06:49:56.825Z,57.17
2022-12-31T06:55:02.590Z,53.50
2022-12-31T07:00:08.735Z,44.47
2022-12-31T07:05:37.221Z,61.25
2022-12-31T07:10:58.075Z,53.87
2022-12-31T07:16:31.519Z,45.93
2022-12-31T07:21:40.379Z,52.87
2022-12-31T07:27:04.261Z,47.50
2022-12-31T07:32:38.853Z,55.30
2022-12-31T07:37:49.746Z,56.53
2022-12-31T07:43:25.083Z,46.53
2022-12-31T07:48:30.123Z,55.80
2022-12-31T07:53:38.671Z,52.05
2022-12-31T07:59:09.351Z,54.93
2022-12-31T08:04:47.159Z,55.93
2022-12-31T08:14:59.679Z,44.80
2022-12-31T08:20:08.162Z,56.35
2022-12-31T08:25:58.114Z,49.92
2022-12-31T08:37:25.515Z,60.73
2022-12-31T08:42:41.271Z,68.83
2022-12-31T08:48:03.270Z,67.63
2022-12-31T08:53:08.796Z,62.67
2022-12-31T08:58:37.335Z,70.77
2022-12-31T09:03:54.391Z,67.20
2022-12-31T09:09:24.387Z,67.13
2022-12-31T09:14:48.009Z,61.17
2022-12-31T09:19:56.526Z,59.27
2022-12-31T09:25:03.335Z,62.43
2022-12-31T09:30:14.071Z,63.23
2022-12-31T09:35:37.844Z,61.77
2022-12-31T09:41:03.062Z,53.90
2022-12-31T09:46:42.425Z,56.57
2022-12-31T09:52:19.341Z,55.77
2022-12-31T09:57:39.848Z,53.80
2022-12-31T10:03:22.056Z,49.77
2022-12-31T10:08:45.471Z,55.10
2022-12-31T10:14:17.426Z,49.33
2022-12-31T10:20:10.172Z,59.30
2022-12-31T10:25:51.798Z,57.87
2022-12-31T10:31:24.394Z,62.43
2022-12-31T10:36:48.350Z,54.80
2022-12-31T10:42:31.436Z,56.17
2022-12-31T10:47:51.785Z,57.23
2022-12-31T10:53:15.720Z,56.13
2022-12-31T10:58:39.497Z,59.47
2022-12-31T11:03:56.241Z,53.80
2022-12-31T11:09:34.229Z,58.42
2022-12-31T11:15:10.901Z,67.40
2022-12-31T11:20:39.049Z,70.53
2022-12-31T11:26:08.870Z,59.23
2022-12-31T11:31:57.261Z,64.10
2022-12-31T11:37:30.510Z,66.85
2022-12-31T11:43:01.500Z,70.00
2022-12-31T11:48:31.681Z,78.20
2022-12-31T11:53:59.644Z,72.33
2022-12-31T11:59:18.842Z,72.27
2022-12-31T12:04:25.610Z,77.33
2022-12-31T12:09:36.887Z,73.20
2022-12-31T12:14:49.518Z,76.30
2022-12-31T12:19:57.627Z,82.63
2022-12-31T12:25:09.421Z,81.07
2022-12-31T12:30:25.273Z,75.47
2022-12-31T12:35:35.868Z,78.90
2022-12-31T12:40:40.199Z,78.20
2022-12-31T12:45:52.365Z,64.90
2022-12-31T12:51:00.677Z,77.47
2022-12-31T12:56:36.699Z,75.53
2022-12-31T13:02:00.080Z,78.20
2022-12-31T13:07:21.398Z,88.20
2022-12-31T13:18:39.839Z,86.57
2022-12-31T13:23:54.295Z,71.00
2022-12-31T13:29:01.256Z,71.07
2022-12-31T13:34:17.952Z,73.30
2022-12-31T13:39:31.606Z,80.50
2022-12-31T13:44:54.634Z,84.53
2022-12-31T13:50:16.713Z,78.00
2022-12-31T13:55:26.436Z,85.77
2022-12-31T14:00:42.329Z,85.37
2022-12-31T14:05:57.437Z,75.10
2022-12-31T14:11:35.239Z,76.03
2022-12-31T14:22:06.533Z,71.23
2022-12-31T14:27:39.136Z,82.43
2022-12-31T14:33:02.210Z,79.90
2022-12-31T14:38:47.199Z,75.20
2022-12-31T14:44:53.059Z,88.07
2022-12-31T14:50:16.998Z,83.17
2022-12-31T14:55:26.774Z,69.20
2022-12-31T15:00:40.007Z,81.07
2022-12-31T15:06:11.397Z,74.03
2022-12-31T15:11:24.888Z,78.27
2022-12-31T15:17:01.318Z,79.40
2022-12-31T15:22:32.382Z,80.67
2022-12-31T15:27:40.308Z,77.13
2022-12-31T15:32:49.333Z,75.37
2022-12-31T15:38:41.881Z,76.43
2022-12-31T15:44:04.653Z,87.33
2022-12-31T15:49:25.866Z,77.83
2022-12-31T15:54:37.495Z,88.93
2022-12-31T15:59:47.576Z,75.50
2022-12-31T16:04:53.036Z,79.23
2022-12-31T16:10:00.793Z,79.23
2022-12-31T16:15:07.519Z,76.00
2022-12-31T16:20:28.609Z,77.33
2022-12-31T16:25:34.044Z,73.77
2022-12-31T16:30:41.989Z,66.70
2022-12-31T16:35:56.495Z,72.00
2022-12-31T16:41:17.465Z,71.77
2022-12-31T16:46:33.013Z,64.83
2022-12-31T16:51:40.579Z,74.30
2022-12-31T16:56:50.198Z,72.07
2022-12-31T17:01:57.309Z,67.80
2022-12-31T17:07:33.414Z,73.93
2022-12-31T17:13:28.419Z,78.20
2022-12-31T17:18:29.583Z,77.93
2022-12-31T17:23:39.433Z,82.30
2022-12-31T17:28:51.686Z,73.10
2022-12-31T17:34:18.189Z,74.13
2022-12-31T17:39:40.770Z,77.13
2022-12-31T17:44:52.747Z,87.07
2022-12-31T17:50:23.197Z,76.97
2022-12-31T17:55:29.456Z,78.27
2022-12-31T18:00:38.587Z,73.60
2022-12-31T18:05:45.654Z,82.68
2022-12-31T18:10:55.707Z,74.67
2022-12-31T18:16:07.348Z,76.03
2022-12-31T18:21:27.815Z,76.60
2022-12-31T18:26:37.747Z,84.60
2022-12-31T18:31:51.402Z,91.37
2022-12-31T18:36:56.608Z,95.50
2022-12-31T18:42:02.033Z,79.00
2022-12-31T18:47:16.583Z,80.47
2022-12-31T18:52:26.347Z,80.80
2022-12-31T18:57:31.352Z,84.27
2022-12-31T19:02:39.398Z,82.00
2022-12-31T19:07:44.168Z,81.83
2022-12-31T19:12:50.578Z,80.40
2022-12-31T19:17:54.635Z,87.13
2022-12-31T19:23:00.692Z,89.37
2022-12-31T19:28:14.721Z,86.03
2022-12-31T19:33:19.264Z,77.33
2022-12-31T19:38:33.117Z,75.07
2022-12-31T19:43:40.214Z,80.40
2022-12-31T19:48:46.947Z,80.87
2022-12-31T19:53:54.034Z,85.40
2022-12-31T19:59:05.712Z,81.23
2022-12-31T20:04:13.619Z,84.57
2022-12-31T20:09:17.409Z,71.93
2022-12-31T20:14:25.105Z,77.22
2022-12-31T20:19:31.978Z,88.07
2022-12-31T20:24:40.146Z,76.67
2022-12-31T20:29:44.220Z,80.97
2022-12-31T20:34:48.807Z,76.73
2022-12-31T20:39:54.391Z,72.13
2022-12-31T20:44:58.160Z,75.03
2022-12-31T20:50:11.897Z,70.97
2022-12-31T20:55:18.905Z,74.17
2022-12-31T21:00:22.990Z,78.83
2022-12-31T21:05:28.784Z,78.80
2022-12-31T21:10:36.591Z,87.43
2022-12-31T21:15:40.453Z,70.80
2022-12-31T21:20:53.298Z,83.40
2022-12-31T21:25:57.123Z,104.23
2022-12-31T21:31:07.623Z,81.23
2022-12-31T21:36:15.380Z,73.63
2022-12-31T21:41:39.336Z,79.10
2022-12-31T21:47:15.863Z,82.50
2022-12-31T21:52:27.487Z,77.60
2022-12-31T21:57:59.140Z,76.00
2022-12-31T22:03:17.199Z,83.53
2022-12-31T22:08:25.279Z,77.17
2022-12-31T22:13:29.440Z,82.03
2022-12-31T22:18:40.909Z,77.37
2022-12-31T22:23:48.531Z,84.93
2022-12-31T22:28:56.790Z,78.73
2022-12-31T22:34:03.103Z,81.57
2022-12-31T22:39:07.166Z,75.93
2022-12-31T22:44:12.530Z,74.23
2022-12-31T22:49:17.846Z,74.13
2022-12-31T22:54:24.473Z,80.30
2022-12-31T22:59:29.621Z,67.35
2022-12-31T23:04:34.513Z,65.03
2022-12-31T23:09:58.429Z,70.20
2022-12-31T23:15:20.443Z,76.30
2022-12-31T23:20:46.510Z,64.83
2022-12-31T23:25:53.347Z,79.13
2022-12-31T23:30:57.055Z,80.20
2022-12-31T23:36:06.022Z,71.87
2022-12-31T23:41:14.803Z,79.00
2022-12-31T23:46:20.188Z,64.25
2022-12-31T23:51:29.452Z,62.43
2022-12-31T23:56:35.283Z,71.30
